createdAt,value
2023-03-02T00:00:09.106Z,955.0700
2023-03-02T00:00:20.302Z,955.0700
2023-03-02T00:00:31.515Z,955.0700
2023-03-02T00:00:42.698Z,955.0500
2023-03-02T00:00:53.763Z,955.0300
2023-03-02T00:01:04.830Z,955.0300
2023-03-02T00:01:15.986Z,955.0300
2023-03-02T00:01:27.186Z,955.0300
2023-03-02T00:01:38.396Z,955.0300
2023-03-02T00:01:49.613Z,955.0100
2023-03-02T00:02:00.793Z,955.0300
2023-03-02T00:02:12.077Z,955.0100
2023-03-02T00:02:23.235Z,955.0100
2023-03-02T00:02:34.439Z,955.0100
2023-03-02T00:02:45.682Z,954.9900
2023-03-02T00:02:56.898Z,954.9900
2023-03-02T00:03:08.006Z,954.9900
2023-03-02T00:03:19.263Z,954.9700
2023-03-02T00:03:30.470Z,954.9700
2023-03-02T00:03:41.648Z,954.9700
2023-03-02T00:03:52.815Z,954.9700
2023-03-02T00:04:04.066Z,954.9700
2023-03-02T00:04:15.269Z,954.9700
2023-03-02T00:04:26.411Z,954.9900
2023-03-02T00:04:37.598Z,954.9700
2023-03-02T00:04:48.826Z,954.9500
2023-03-02T00:04:59.995Z,954.9500
2023-03-02T00:05:11.178Z,954.9500
2023-03-02T00:05:22.392Z,954.9500
2023-03-02T00:05:33.579Z,954.9500
2023-03-02T00:05:44.665Z,954.9700
2023-03-02T00:05:55.755Z,954.9500
2023-03-02T00:06:06.860Z,954.9700
2023-03-02T00:06:18.064Z,954.9500
2023-03-02T00:06:29.354Z,954.9700
2023-03-02T00:06:40.385Z,954.9700
2023-03-02T00:06:51.470Z,954.9700
2023-03-02T00:07:02.544Z,954.9900
2023-03-02T00:07:13.755Z,954.9900
2023-03-02T00:07:24.941Z,954.9700
2023-03-02T00:07:36.044Z,954.9700
2023-03-02T00:07:47.088Z,954.9500
2023-03-02T00:07:58.177Z,954.9900
2023-03-02T00:08:09.207Z,954.9700
2023-03-02T00:08:20.341Z,954.9700
2023-03-02T00:08:31.536Z,954.9700
2023-03-02T00:08:42.705Z,954.9900
2023-03-02T00:08:53.909Z,954.9900
2023-03-02T00:09:05.107Z,954.9900
2023-03-02T00:09:16.307Z,954.9700
2023-03-02T00:09:27.506Z,954.9900
2023-03-02T00:09:38.742Z,954.9900
2023-03-02T00:09:49.914Z,954.9700
2023-03-02T00:10:00.991Z,954.9700
2023-03-02T00:10:12.081Z,954.9700
2023-03-02T00:10:23.190Z,954.9700
2023-03-02T00:10:34.391Z,954.9700
2023-03-02T00:10:45.615Z,954.9900
2023-03-02T00:10:56.650Z,954.9700
2023-03-02T00:11:07.710Z,954.9700
2023-03-02T00:11:18.793Z,954.9900
2023-03-02T00:11:29.843Z,954.9900
2023-03-02T00:11:40.954Z,954.9700
2023-03-02T00:11:52.090Z,954.9900
2023-03-02T00:12:03.252Z,954.9700
2023-03-02T00:12:14.300Z,954.9700
2023-03-02T00:12:25.354Z,954.9700
2023-03-02T00:12:36.417Z,954.9700
2023-03-02T00:12:47.524Z,954.9700
2023-03-02T00:12:58.541Z,954.9500
2023-03-02T00:13:09.596Z,954.9500
2023-03-02T00:13:20.781Z,954.9500
2023-03-02T00:13:31.875Z,954.9500
2023-03-02T00:13:43.135Z,954.9500
2023-03-02T00:13:54.208Z,954.9700
2023-03-02T00:14:05.277Z,954.9500
2023-03-02T00:14:16.502Z,954.9500
2023-03-02T00:14:27.667Z,954.9300
2023-03-02T00:14:38.885Z,954.9300
2023-03-02T00:14:50.069Z,954.9300
2023-03-02T00:15:01.306Z,954.9100
2023-03-02T00:15:12.469Z,954.9100
2023-03-02T00:15:23.665Z,954.9100
2023-03-02T00:15:34.906Z,954.9300
2023-03-02T00:15:46.119Z,954.9100
2023-03-02T00:15:57.349Z,954.9300
2023-03-02T00:16:08.674Z,954.9100
2023-03-02T00:16:19.816Z,954.9100
2023-03-02T00:16:31.313Z,954.9100
2023-03-02T00:16:42.754Z,954.9100
2023-03-02T00:16:53.914Z,954.9100
2023-03-02T00:17:04.972Z,954.9100
2023-03-02T00:17:16.050Z,954.9100
2023-03-02T00:17:27.212Z,954.9500
2023-03-02T00:17:38.386Z,954.9500
2023-03-02T00:17:49.589Z,954.9500
2023-03-02T00:18:00.786Z,954.9500
2023-03-02T00:18:11.983Z,954.9500
2023-03-02T00:18:23.199Z,954.9500
2023-03-02T00:18:34.286Z,954.9500
2023-03-02T00:18:45.335Z,954.9500
2023-03-02T00:18:56.468Z,954.9500
2023-03-02T00:19:07.671Z,954.9700
2023-03-02T00:19:18.865Z,954.9500
2023-03-02T00:19:30.070Z,954.9700
2023-03-02T00:19:41.266Z,954.9700
2023-03-02T00:19:52.466Z,954.9900
2023-03-02T00:20:03.650Z,954.9900
2023-03-02T00:20:14.886Z,954.9900
2023-03-02T00:20:26.073Z,954.9900
2023-03-02T00:20:37.116Z,954.9700
2023-03-02T00:20:48.181Z,954.9900
2023-03-02T00:20:59.339Z,954.9900
2023-03-02T00:21:10.593Z,954.9900
2023-03-02T00:21:21.745Z,954.9900
2023-03-02T00:21:32.943Z,954.9700
2023-03-02T00:21:44.141Z,954.9700
2023-03-02T00:21:55.357Z,954.9700
2023-03-02T00:22:06.581Z,954.9500
2023-03-02T00:22:17.756Z,954.9500
2023-03-02T00:22:28.962Z,954.9500
2023-03-02T00:22:40.000Z,954.9300
2023-03-02T00:22:51.032Z,954.9500
2023-03-02T00:23:02.220Z,954.9500
2023-03-02T00:23:13.427Z,954.9300
2023-03-02T00:23:24.635Z,954.9300
2023-03-02T00:23:35.848Z,954.9300
2023-03-02T00:23:47.029Z,954.9300
2023-03-02T00:23:58.248Z,954.9300
2023-03-02T00:24:09.431Z,954.9100
2023-03-02T00:24:20.637Z,954.9100
2023-03-02T00:24:31.845Z,954.9100
2023-03-02T00:24:42.894Z,954.9100
2023-03-02T00:24:53.952Z,954.9100
2023-03-02T00:25:05.103Z,954.9000
2023-03-02T00:25:16.185Z,954.9100
2023-03-02T00:25:27.265Z,954.9000
2023-03-02T00:25:38.407Z,954.9000
2023-03-02T00:25:49.449Z,954.9000
2023-03-02T00:26:00.550Z,954.9000
2023-03-02T00:26:11.693Z,954.9000
2023-03-02T00:26:22.913Z,954.9000
2023-03-02T00:26:34.389Z,954.9100
2023-03-02T00:26:45.634Z,954.9100
2023-03-02T00:26:56.797Z,954.9100
2023-03-02T00:27:08.001Z,954.9100
2023-03-02T00:27:19.197Z,954.9100
2023-03-02T00:27:30.396Z,954.9300
2023-03-02T00:27:41.608Z,954.9300
2023-03-02T00:27:52.658Z,954.9100
2023-03-02T00:28:03.763Z,954.9100
2023-03-02T00:28:14.873Z,954.9300
2023-03-02T00:28:25.899Z,954.9300
2023-03-02T00:28:36.982Z,954.9300
2023-03-02T00:28:48.171Z,954.9300
2023-03-02T00:28:59.219Z,954.9100
2023-03-02T00:29:10.290Z,954.9100
2023-03-02T00:29:21.439Z,954.9100
2023-03-02T00:29:32.623Z,954.9300
2023-03-02T00:29:43.825Z,954.9100
2023-03-02T00:29:54.865Z,954.9100
2023-03-02T00:30:05.917Z,954.9100
2023-03-02T00:30:17.100Z,954.9100
2023-03-02T00:30:28.305Z,954.9000
2023-03-02T00:30:39.533Z,954.9000
2023-03-02T00:30:50.717Z,954.9100
2023-03-02T00:31:01.961Z,954.9000
2023-03-02T00:31:13.142Z,954.9000
2023-03-02T00:31:24.371Z,954.9000
2023-03-02T00:31:35.577Z,954.9000
2023-03-02T00:31:46.728Z,954.9000
2023-03-02T00:31:57.955Z,954.9000
2023-03-02T00:32:09.053Z,954.9100
2023-03-02T00:32:20.326Z,954.9100
2023-03-02T00:32:31.534Z,954.9000
2023-03-02T00:32:42.709Z,954.9000
2023-03-02T00:32:53.796Z,954.9000
2023-03-02T00:33:12.469Z,954.8800
2023-03-02T00:33:23.660Z,954.8800
2023-03-02T00:33:34.744Z,954.9000
2023-03-02T00:33:45.846Z,954.9000
2023-03-02T00:33:56.949Z,954.8800
2023-03-02T00:34:08.139Z,954.8800
2023-03-02T00:34:19.346Z,954.8800
2023-03-02T00:34:30.562Z,954.9000
2023-03-02T00:34:41.757Z,954.9000
2023-03-02T00:34:52.798Z,954.9000
2023-03-02T00:35:04.144Z,954.9000
2023-03-02T00:35:15.340Z,954.9000
2023-03-02T00:35:26.575Z,954.9000
2023-03-02T00:35:37.787Z,954.9000
2023-03-02T00:35:49.022Z,954.9000
2023-03-02T00:36:00.240Z,954.9000
2023-03-02T00:36:11.363Z,954.9100
2023-03-02T00:36:22.570Z,954.9100
2023-03-02T00:36:33.614Z,954.9100
2023-03-02T00:36:44.766Z,954.9100
2023-03-02T00:36:55.816Z,954.9100
2023-03-02T00:37:07.032Z,954.9100
2023-03-02T00:37:18.257Z,954.9100
2023-03-02T00:37:29.424Z,954.9100
2023-03-02T00:37:40.616Z,954.9100
2023-03-02T00:37:51.754Z,954.9100
2023-03-02T00:38:02.833Z,954.9100
2023-03-02T00:38:13.899Z,954.9000
2023-03-02T00:38:25.113Z,954.9000
2023-03-02T00:38:36.184Z,954.9000
2023-03-02T00:38:47.309Z,954.9000
2023-03-02T00:38:58.379Z,954.8800
2023-03-02T00:39:09.449Z,954.8800
2023-03-02T00:39:20.600Z,954.8800
2023-03-02T00:39:31.668Z,954.9000
2023-03-02T00:39:42.723Z,954.9000
2023-03-02T00:39:53.788Z,954.9000
2023-03-02T00:40:04.942Z,954.8800
2023-03-02T00:40:16.002Z,954.8800
2023-03-02T00:40:27.089Z,954.9000
2023-03-02T00:40:38.224Z,954.9000
2023-03-02T00:40:49.298Z,954.9000
2023-03-02T00:41:00.362Z,954.9100
2023-03-02T00:41:11.481Z,954.9100
2023-03-02T00:41:22.517Z,954.9300
2023-03-02T00:41:33.579Z,954.9300
2023-03-02T00:41:44.779Z,954.9500
2023-03-02T00:41:55.835Z,954.9500
2023-03-02T00:42:06.867Z,954.9300
2023-03-02T00:42:18.064Z,954.9300
2023-03-02T00:42:29.269Z,954.9300
2023-03-02T00:42:40.467Z,954.9300
2023-03-02T00:42:51.680Z,954.9300
2023-03-02T00:43:02.890Z,954.9300
2023-03-02T00:43:14.064Z,954.9300
2023-03-02T00:43:25.257Z,954.9300
2023-03-02T00:43:36.317Z,954.9300
2023-03-02T00:43:47.426Z,954.9100
2023-03-02T00:43:58.551Z,954.9000
2023-03-02T00:44:09.807Z,954.9000
2023-03-02T00:44:20.953Z,954.9100
2023-03-02T00:44:32.152Z,954.9100
2023-03-02T00:44:43.230Z,954.9000
2023-03-02T00:44:54.287Z,954.8800
2023-03-02T00:45:05.445Z,954.9000
2023-03-02T00:45:16.568Z,954.9000
2023-03-02T00:45:27.842Z,954.9000
2023-03-02T00:45:39.024Z,954.9000
2023-03-02T00:45:50.130Z,954.9000
2023-03-02T00:46:01.218Z,954.8800
2023-03-02T00:46:12.419Z,954.8800
2023-03-02T00:46:23.552Z,954.8800
2023-03-02T00:46:35.246Z,954.9000
2023-03-02T00:46:46.700Z,954.9000
2023-03-02T00:46:57.927Z,954.9000
2023-03-02T00:47:09.036Z,954.9000
2023-03-02T00:47:20.145Z,954.9000
2023-03-02T00:47:31.354Z,954.9000
2023-03-02T00:47:42.601Z,954.9000
2023-03-02T00:47:53.729Z,954.9000
2023-03-02T00:48:04.984Z,954.9100
2023-03-02T00:48:16.166Z,954.9000
2023-03-02T00:48:27.354Z,954.9000
2023-03-02T00:48:38.536Z,954.9000
2023-03-02T00:48:49.801Z,954.9000
2023-03-02T00:49:00.945Z,954.9000
2023-03-02T00:49:12.194Z,954.9100
2023-03-02T00:49:23.355Z,954.9000
2023-03-02T00:49:34.471Z,954.9000
2023-03-02T00:49:45.531Z,954.9000
2023-03-02T00:49:56.627Z,954.8800
2023-03-02T00:50:07.831Z,954.8800
2023-03-02T00:50:19.043Z,954.8800
2023-03-02T00:50:30.222Z,954.8800
2023-03-02T00:50:41.421Z,954.8800
2023-03-02T00:50:52.630Z,954.8800
2023-03-02T00:51:03.823Z,954.8600
2023-03-02T00:51:14.873Z,954.8800
2023-03-02T00:51:25.926Z,954.8800
2023-03-02T00:51:37.098Z,954.8800
2023-03-02T00:51:48.303Z,954.8800
2023-03-02T00:51:59.504Z,954.8800
2023-03-02T00:52:10.670Z,954.9000
2023-03-02T00:52:21.936Z,954.9000
2023-03-02T00:52:33.105Z,954.8800
2023-03-02T00:52:44.298Z,954.9000
2023-03-02T00:52:55.497Z,954.8800
2023-03-02T00:53:06.708Z,954.8800
2023-03-02T00:53:18.003Z,954.8800
2023-03-02T00:53:29.097Z,954.9100
2023-03-02T00:53:40.309Z,954.9000
2023-03-02T00:53:51.438Z,954.9000
2023-03-02T00:54:02.512Z,954.9000
2023-03-02T00:54:13.595Z,954.8800
2023-03-02T00:54:24.639Z,954.9000
2023-03-02T00:54:35.720Z,954.8800
2023-03-02T00:54:46.915Z,954.8800
2023-03-02T00:54:57.942Z,954.8800
2023-03-02T00:55:09.011Z,954.8600
2023-03-02T00:55:20.136Z,954.8400
2023-03-02T00:55:31.350Z,954.8400
2023-03-02T00:55:42.544Z,954.8400
2023-03-02T00:55:53.743Z,954.8200
2023-03-02T00:56:04.950Z,954.8200
2023-03-02T00:56:16.073Z,954.8000
2023-03-02T00:56:27.108Z,954.8000
2023-03-02T00:56:38.228Z,954.8000
2023-03-02T00:56:49.436Z,954.8000
2023-03-02T00:57:00.472Z,954.7800
2023-03-02T00:57:11.539Z,954.7800
2023-03-02T00:57:22.703Z,954.7800
2023-03-02T00:57:33.904Z,954.7800
2023-03-02T00:57:45.111Z,954.7600
2023-03-02T00:57:56.184Z,954.7600
2023-03-02T00:58:07.262Z,954.7600
2023-03-02T00:58:18.308Z,954.7600
2023-03-02T00:58:29.435Z,954.7600
2023-03-02T00:58:40.527Z,954.7400
2023-03-02T00:58:51.711Z,954.7400
2023-03-02T00:59:02.756Z,954.7600
2023-03-02T00:59:13.803Z,954.7600
2023-03-02T00:59:24.857Z,954.7400
2023-03-02T00:59:35.931Z,954.7400
2023-03-02T00:59:47.084Z,954.7400
2023-03-02T00:59:58.236Z,954.7400
2023-03-02T01:00:09.427Z,954.7200
2023-03-02T01:00:20.632Z,954.7400
2023-03-02T01:00:31.715Z,954.7400
2023-03-02T01:00:42.785Z,954.7200
2023-03-02T01:00:53.920Z,954.7200
2023-03-02T01:01:05.120Z,954.7200
2023-03-02T01:01:18.512Z,954.7200
2023-03-02T01:01:29.845Z,954.7400
2023-03-02T01:01:40.945Z,954.7400
2023-03-02T01:01:52.213Z,954.7200
2023-03-02T01:02:03.379Z,954.7200
2023-03-02T01:02:14.540Z,954.7000
2023-03-02T01:02:25.851Z,954.7000
2023-03-02T01:02:37.106Z,954.7000
2023-03-02T01:02:48.403Z,954.7000
2023-03-02T01:02:59.865Z,954.7000
2023-03-02T01:03:11.409Z,954.7000
2023-03-02T01:03:22.530Z,954.7000
2023-03-02T01:03:33.697Z,954.6800
2023-03-02T01:03:44.809Z,954.6800
2023-03-02T01:03:56.033Z,954.6800
2023-03-02T01:04:07.206Z,954.6600
2023-03-02T01:04:18.410Z,954.6800
2023-03-02T01:04:29.620Z,954.6600
2023-03-02T01:04:40.798Z,954.6600
2023-03-02T01:04:52.030Z,954.6600
2023-03-02T01:05:03.100Z,954.6600
2023-03-02T01:05:14.203Z,954.6600
2023-03-02T01:05:25.292Z,954.6400
2023-03-02T01:05:36.299Z,954.6400
2023-03-02T01:05:47.371Z,954.6200
2023-03-02T01:05:58.565Z,954.6200
2023-03-02T01:06:09.644Z,954.6200
2023-03-02T01:06:20.717Z,954.6200
2023-03-02T01:06:32.210Z,954.6000
2023-03-02T01:06:43.716Z,954.6000
2023-03-02T01:06:54.875Z,954.6000
2023-03-02T01:07:05.981Z,954.6000
2023-03-02T01:07:17.072Z,954.6000
2023-03-02T01:07:28.167Z,954.6000
2023-03-02T01:07:39.352Z,954.6000
2023-03-02T01:07:50.432Z,954.6000
2023-03-02T01:08:01.489Z,954.6000
2023-03-02T01:08:12.557Z,954.5800
2023-03-02T01:08:23.660Z,954.5800
2023-03-02T01:08:34.725Z,954.5800
2023-03-02T01:08:45.829Z,954.5800
2023-03-02T01:08:56.920Z,954.5600
2023-03-02T01:09:08.022Z,954.5800
2023-03-02T01:09:19.089Z,954.5800
2023-03-02T01:09:30.155Z,954.5600
2023-03-02T01:09:41.278Z,954.5800
2023-03-02T01:09:52.485Z,954.5800
2023-03-02T01:10:03.584Z,954.5800
2023-03-02T01:10:14.650Z,954.5800
2023-03-02T01:10:25.709Z,954.5800
2023-03-02T01:10:36.761Z,954.6000
2023-03-02T01:10:47.841Z,954.6000
2023-03-02T01:10:58.932Z,954.5800
2023-03-02T01:11:10.008Z,954.5800
2023-03-02T01:11:21.158Z,954.5800
2023-03-02T01:11:32.234Z,954.5800
2023-03-02T01:11:43.296Z,954.6000
2023-03-02T01:11:54.413Z,954.6000
2023-03-02T01:12:05.616Z,954.6000
2023-03-02T01:12:16.801Z,954.5800
2023-03-02T01:12:27.997Z,954.6000
2023-03-02T01:12:39.036Z,954.5800
2023-03-02T01:12:50.085Z,954.5800
2023-03-02T01:13:01.326Z,954.6000
2023-03-02T01:13:12.494Z,954.6000
2023-03-02T01:13:23.564Z,954.6000
2023-03-02T01:13:34.644Z,954.5800
2023-03-02T01:13:45.747Z,954.6000
2023-03-02T01:13:56.844Z,954.6000
2023-03-02T01:14:07.958Z,954.5600
2023-03-02T01:14:19.052Z,954.5600
2023-03-02T01:14:30.234Z,954.5600
2023-03-02T01:14:41.433Z,954.5600
2023-03-02T01:14:52.652Z,954.5800
2023-03-02T01:15:03.848Z,954.5600
2023-03-02T01:15:15.032Z,954.5800
2023-03-02T01:15:26.231Z,954.5800
2023-03-02T01:15:37.437Z,954.5600
2023-03-02T01:15:48.723Z,954.5800
2023-03-02T01:15:59.888Z,954.5800
2023-03-02T01:16:11.094Z,954.5800
2023-03-02T01:16:22.219Z,954.5800
2023-03-02T01:16:33.680Z,954.5800
2023-03-02T01:16:45.293Z,954.5600
2023-03-02T01:16:56.350Z,954.5800
2023-03-02T01:17:07.441Z,954.5600
2023-03-02T01:17:18.566Z,954.5600
2023-03-02T01:17:29.743Z,954.5800
2023-03-02T01:17:40.967Z,954.5800
2023-03-02T01:17:51.993Z,954.5600
2023-03-02T01:18:03.053Z,954.5600
2023-03-02T01:18:14.241Z,954.5600
2023-03-02T01:18:25.462Z,954.5600
2023-03-02T01:18:36.632Z,954.5600
2023-03-02T01:18:47.831Z,954.5600
2023-03-02T01:18:59.065Z,954.5600
2023-03-02T01:19:10.286Z,954.5600
2023-03-02T01:19:21.448Z,954.5400
2023-03-02T01:19:32.639Z,954.5400
2023-03-02T01:19:43.851Z,954.5200
2023-03-02T01:19:54.905Z,954.5200
2023-03-02T01:20:05.955Z,954.5000
2023-03-02T01:20:17.142Z,954.5200
2023-03-02T01:20:28.318Z,954.5400
2023-03-02T01:20:39.519Z,954.5400
2023-03-02T01:20:50.718Z,954.5400
2023-03-02T01:21:01.770Z,954.5000
2023-03-02T01:21:12.927Z,954.5200
2023-03-02T01:21:24.044Z,954.5000
2023-03-02T01:21:35.071Z,954.5000
2023-03-02T01:21:46.134Z,954.5000
2023-03-02T01:21:57.279Z,954.5000
2023-03-02T01:22:08.336Z,954.4800
2023-03-02T01:22:19.402Z,954.5000
2023-03-02T01:22:30.570Z,954.5000
2023-03-02T01:22:41.756Z,954.5000
2023-03-02T01:22:52.965Z,954.5000
2023-03-02T01:23:04.048Z,954.4800
2023-03-02T01:23:15.102Z,954.4800
2023-03-02T01:23:26.234Z,954.4600
2023-03-02T01:23:37.460Z,954.4600
2023-03-02T01:23:48.485Z,954.4600
2023-03-02T01:23:59.531Z,954.4800
2023-03-02T01:24:10.761Z,954.4800
2023-03-02T01:24:21.802Z,954.4600
2023-03-02T01:24:32.853Z,954.4800
2023-03-02T01:24:43.996Z,954.4800
2023-03-02T01:24:55.199Z,954.4400
2023-03-02T01:25:06.400Z,954.4400
2023-03-02T01:25:17.593Z,954.4400
2023-03-02T01:25:28.669Z,954.4400
2023-03-02T01:25:39.757Z,954.4400
2023-03-02T01:25:50.887Z,954.4400
2023-03-02T01:26:02.083Z,954.4400
2023-03-02T01:26:13.151Z,954.4600
2023-03-02T01:26:24.173Z,954.4800
2023-03-02T01:26:35.223Z,954.4600
2023-03-02T01:26:46.285Z,954.4600
2023-03-02T01:26:57.448Z,954.4600
2023-03-02T01:27:08.646Z,954.4800
2023-03-02T01:27:19.837Z,954.4800
2023-03-02T01:27:31.064Z,954.4800
2023-03-02T01:27:42.103Z,954.4800
2023-03-02T01:27:53.201Z,954.4800
2023-03-02T01:28:04.322Z,954.4800
2023-03-02T01:28:15.374Z,954.4800
2023-03-02T01:28:26.410Z,954.4800
2023-03-02T01:28:37.612Z,954.4800
2023-03-02T01:28:50.026Z,954.4800
2023-03-02T01:29:01.337Z,954.5000
2023-03-02T01:29:12.414Z,954.4800
2023-03-02T01:29:23.491Z,954.4800
2023-03-02T01:29:34.514Z,954.5000
2023-03-02T01:29:45.577Z,954.5000
2023-03-02T01:29:56.634Z,954.4800
2023-03-02T01:30:07.864Z,954.4800
2023-03-02T01:30:19.030Z,954.4600
2023-03-02T01:30:30.242Z,954.4800
2023-03-02T01:30:41.354Z,954.4600
2023-03-02T01:30:52.414Z,954.4600
2023-03-02T01:31:03.558Z,954.4600
2023-03-02T01:31:14.624Z,954.4600
2023-03-02T01:31:25.727Z,954.4400
2023-03-02T01:31:36.839Z,954.4600
2023-03-02T01:31:48.055Z,954.4400
2023-03-02T01:31:59.355Z,954.4400
2023-03-02T01:32:10.513Z,954.4600
2023-03-02T01:32:21.605Z,954.4400
2023-03-02T01:32:32.767Z,954.4400
2023-03-02T01:32:44.001Z,954.4400
2023-03-02T01:32:55.200Z,954.4300
2023-03-02T01:33:06.403Z,954.4300
2023-03-02T01:33:17.601Z,954.4100
2023-03-02T01:33:28.795Z,954.4100
2023-03-02T01:33:40.016Z,954.4100
2023-03-02T01:33:51.116Z,954.4300
2023-03-02T01:34:02.206Z,954.4300
2023-03-02T01:34:13.320Z,954.4100
2023-03-02T01:34:24.520Z,954.4100
2023-03-02T01:34:35.603Z,954.4100
2023-03-02T01:34:46.646Z,954.4100
2023-03-02T01:34:57.712Z,954.3900
2023-03-02T01:35:08.960Z,954.3900
2023-03-02T01:35:20.181Z,954.3900
2023-03-02T01:35:31.401Z,954.3900
2023-03-02T01:35:42.532Z,954.3700
2023-03-02T01:35:53.796Z,954.3900
2023-03-02T01:36:04.956Z,954.3900
2023-03-02T01:36:16.162Z,954.3700
2023-03-02T01:36:27.364Z,954.3700
2023-03-02T01:36:38.555Z,954.3700
2023-03-02T01:36:49.776Z,954.3500
2023-03-02T01:37:00.885Z,954.3700
2023-03-02T01:37:11.931Z,954.3700
2023-03-02T01:37:23.040Z,954.3500
2023-03-02T01:37:34.255Z,954.3500
2023-03-02T01:37:45.451Z,954.3500
2023-03-02T01:37:56.649Z,954.3500
2023-03-02T01:38:07.873Z,954.3500
2023-03-02T01:38:19.085Z,954.3500
2023-03-02T01:38:30.316Z,954.3500
2023-03-02T01:38:41.569Z,954.3500
2023-03-02T01:38:52.700Z,954.3500
2023-03-02T01:39:03.743Z,954.3700
2023-03-02T01:39:14.856Z,954.3700
2023-03-02T01:39:25.914Z,954.3500
2023-03-02T01:39:36.984Z,954.3500
2023-03-02T01:39:48.061Z,954.3500
2023-03-02T01:39:59.199Z,954.3500
2023-03-02T01:40:10.241Z,954.3700
2023-03-02T01:40:21.289Z,954.3700
2023-03-02T01:40:32.741Z,954.3500
2023-03-02T01:40:43.820Z,954.3700
2023-03-02T01:40:54.889Z,954.3500
2023-03-02T01:41:06.080Z,954.3300
2023-03-02T01:41:17.144Z,954.3300
2023-03-02T01:41:28.209Z,954.3500
2023-03-02T01:41:39.353Z,954.3500
2023-03-02T01:41:50.562Z,954.3500
2023-03-02T01:42:01.754Z,954.3300
2023-03-02T01:42:12.960Z,954.3300
2023-03-02T01:42:24.196Z,954.3300
2023-03-02T01:42:35.376Z,954.3300
2023-03-02T01:42:46.553Z,954.3500
2023-03-02T01:42:57.756Z,954.3500
2023-03-02T01:43:08.968Z,954.3300
2023-03-02T01:43:20.042Z,954.3300
2023-03-02T01:43:31.289Z,954.3300
2023-03-02T01:43:42.351Z,954.3500
2023-03-02T01:43:53.452Z,954.3500
2023-03-02T01:44:04.641Z,954.3300
2023-03-02T01:44:15.703Z,954.3500
2023-03-02T01:44:26.743Z,954.3500
2023-03-02T01:44:37.936Z,954.3500
2023-03-02T01:44:49.124Z,954.3500
2023-03-02T01:45:00.317Z,954.3700
2023-03-02T01:45:11.527Z,954.3700
2023-03-02T01:45:22.748Z,954.3900
2023-03-02T01:45:33.983Z,954.3700
2023-03-02T01:45:45.209Z,954.3700
2023-03-02T01:45:56.325Z,954.3900
2023-03-02T01:46:07.596Z,954.3900
2023-03-02T01:46:18.669Z,954.3700
2023-03-02T01:46:30.132Z,954.3700
2023-03-02T01:46:41.541Z,954.3900
2023-03-02T01:46:52.639Z,954.3900
2023-03-02T01:47:03.866Z,954.3700
2023-03-02T01:47:15.042Z,954.3900
2023-03-02T01:47:26.064Z,954.3900
2023-03-02T01:47:37.137Z,954.3900
2023-03-02T01:47:48.316Z,954.3900
2023-03-02T01:47:59.521Z,954.4100
2023-03-02T01:48:10.727Z,954.3900
2023-03-02T01:48:21.775Z,954.3900
2023-03-02T01:48:32.819Z,954.3900
2023-03-02T01:48:44.003Z,954.3900
2023-03-02T01:48:55.209Z,954.3900
2023-03-02T01:49:06.437Z,954.3900
2023-03-02T01:49:17.623Z,954.4100
2023-03-02T01:49:28.794Z,954.3500
2023-03-02T01:49:40.002Z,954.3700
2023-03-02T01:49:51.207Z,954.3500
2023-03-02T01:50:02.402Z,954.3900
2023-03-02T01:50:13.601Z,954.3700
2023-03-02T01:50:24.656Z,954.3700
2023-03-02T01:50:35.685Z,954.3700
2023-03-02T01:50:46.884Z,954.3500
2023-03-02T01:50:58.077Z,954.3300
2023-03-02T01:51:09.118Z,954.3500
2023-03-02T01:51:20.161Z,954.3500
2023-03-02T01:51:31.359Z,954.3500
2023-03-02T01:51:42.396Z,954.3500
2023-03-02T01:51:53.468Z,954.3500
2023-03-02T01:52:04.654Z,954.3500
2023-03-02T01:52:15.904Z,954.3300
2023-03-02T01:52:27.617Z,954.3300
2023-03-02T01:52:38.671Z,954.3500
2023-03-02T01:52:49.791Z,954.3300
2023-03-02T01:53:04.787Z,954.3300
2023-03-02T01:53:16.697Z,954.2900
2023-03-02T01:53:27.726Z,954.2900
2023-03-02T01:53:38.795Z,954.2900
2023-03-02T01:53:49.940Z,954.2700
2023-03-02T01:54:00.998Z,954.3500
2023-03-02T01:54:12.087Z,954.3300
2023-03-02T01:54:23.495Z,954.3300
2023-03-02T01:54:34.712Z,954.3100
2023-03-02T01:54:45.912Z,954.3300
2023-03-02T01:54:57.016Z,954.3300
2023-03-02T01:55:08.090Z,954.3100
2023-03-02T01:55:19.207Z,954.3100
2023-03-02T01:55:30.399Z,954.3100
2023-03-02T01:55:41.619Z,954.2900
2023-03-02T01:55:52.799Z,954.2900
2023-03-02T01:56:03.832Z,954.2900
2023-03-02T01:56:14.874Z,954.2900
2023-03-02T01:56:25.913Z,954.2900
2023-03-02T01:56:36.965Z,954.2900
2023-03-02T01:56:48.152Z,954.2900
2023-03-02T01:56:59.387Z,954.2900
2023-03-02T01:57:10.433Z,954.2900
2023-03-02T01:57:21.507Z,954.3100
2023-03-02T01:57:32.647Z,954.3100
2023-03-02T01:57:43.998Z,954.3100
2023-03-02T01:57:55.074Z,954.2900
2023-03-02T01:58:06.240Z,954.2700
2023-03-02T01:58:17.284Z,954.2700
2023-03-02T01:58:28.354Z,954.2700
2023-03-02T01:58:39.521Z,954.2700
2023-03-02T01:58:50.729Z,954.2700
2023-03-02T01:59:01.787Z,954.2500
2023-03-02T01:59:12.883Z,954.2500
2023-03-02T01:59:23.965Z,954.2700
2023-03-02T01:59:35.003Z,954.2500
2023-03-02T01:59:46.082Z,954.2500
2023-03-02T01:59:57.272Z,954.2300
2023-03-02T02:00:08.500Z,954.2100
2023-03-02T02:00:19.676Z,954.2100
2023-03-02T02:00:30.733Z,954.1700
2023-03-02T02:00:41.833Z,954.1700
2023-03-02T02:00:53.068Z,954.1700
2023-03-02T02:01:04.259Z,954.1900
2023-03-02T02:01:15.584Z,954.1700
2023-03-02T02:01:26.988Z,954.1700
2023-03-02T02:01:38.074Z,954.1900
2023-03-02T02:01:49.273Z,954.1700
2023-03-02T02:02:00.493Z,954.1500
2023-03-02T02:02:11.685Z,954.1700
2023-03-02T02:02:22.876Z,954.1700
2023-03-02T02:02:33.933Z,954.1700
2023-03-02T02:02:45.008Z,954.1700
2023-03-02T02:02:56.171Z,954.1700
2023-03-02T02:03:07.217Z,954.1700
2023-03-02T02:03:18.233Z,954.1700
2023-03-02T02:03:29.453Z,954.1500
2023-03-02T02:03:40.521Z,954.1500
2023-03-02T02:03:51.632Z,954.1500
2023-03-02T02:04:02.797Z,954.1500
2023-03-02T02:04:13.967Z,954.1700
2023-03-02T02:04:25.240Z,954.1700
2023-03-02T02:04:36.320Z,954.1500
2023-03-02T02:04:47.519Z,954.1300
2023-03-02T02:04:58.724Z,954.1300
2023-03-02T02:05:09.755Z,954.1300
2023-03-02T02:05:20.810Z,954.1300
2023-03-02T02:05:32.006Z,954.1300
2023-03-02T02:05:43.052Z,954.1100
2023-03-02T02:05:54.088Z,954.1100
2023-03-02T02:06:05.281Z,954.1100
2023-03-02T02:06:16.320Z,954.1100
2023-03-02T02:06:27.369Z,954.0900
2023-03-02T02:06:38.589Z,954.0900
2023-03-02T02:06:49.593Z,954.0900
2023-03-02T02:07:00.647Z,954.0700
2023-03-02T02:07:11.837Z,954.0700
2023-03-02T02:07:22.907Z,954.0700
2023-03-02T02:07:33.969Z,954.0500
2023-03-02T02:07:45.163Z,954.0500
2023-03-02T02:07:56.237Z,954.0500
2023-03-02T02:08:07.276Z,954.0500
2023-03-02T02:08:18.432Z,953.9700
2023-03-02T02:08:29.506Z,953.9700
2023-03-02T02:08:40.544Z,953.9700
2023-03-02T02:08:51.687Z,953.9500
2023-03-02T02:09:02.714Z,953.9300
2023-03-02T02:09:13.767Z,953.9500
2023-03-02T02:09:24.975Z,953.9300
2023-03-02T02:09:36.209Z,953.9300
2023-03-02T02:09:47.357Z,953.9300
2023-03-02T02:09:58.578Z,953.9100
2023-03-02T02:10:09.620Z,953.9000
2023-03-02T02:10:20.718Z,953.9000
2023-03-02T02:10:31.848Z,953.9000
2023-03-02T02:10:43.057Z,953.9100
2023-03-02T02:10:54.234Z,953.9000
2023-03-02T02:11:05.317Z,953.9000
2023-03-02T02:11:16.363Z,953.9000